Zim Qingdao — A8IZ2 — position and weather

sailwx.info

Track history (hours):
 
Tides and Currents Weather Stations Pressure Air Temp Water Temp Dewpoint Dewpoint Depression Visibility Wind Speed Wind Dir Waves Ship Positions

Zim Qingdao

Last reported at 2017-Mar-01 18:08 UTC. Time now 2017-Mar-01 20:15 UTC.
Position N 39°24' W 000°16'.

Length 260.61 m; beam 32.25 m; draft 12.6 m.

Type: Ship (hazmat cat A). MMSI: 636012904.

Date/timePositionNaut miles runAvg speedWind from/ knotsBaromVisibWave heightAir tempDewpointWater temp
2017-Mar-01 18:08N 39°24' W 000°16'0 0.0
2017-Mar-01 17:32N 39°24' W 000°16'0 0.0
2017-Mar-01 09:20N 39°24' W 000°16'0 0.0
2017-Mar-01 07:14N 39°24' W 000°16'0 0.1
2017-Mar-01 06:26N 39°24' W 000°16'0 0.0
2017-Mar-01 04:08N 39°24' W 000°16'0 0.1
2017-Mar-01 03:23N 39°24' W 000°16'0 0.1
2017-Mar-01 02:32N 39°24' W 000°16'0 0.0
2017-Mar-01 01:11N 39°24' W 000°16'0 0.0
2017-Mar-01 00:26N 39°24' W 000°16'0 0.0
2017-Feb-28 10:26N 39°24' W 000°16'0 0.0
2017-Feb-28 09:14N 39°24' W 000°16'0 0.0
2017-Feb-28 08:26N 39°24' W 000°16'1 0.9
2017-Feb-28 07:33N 39°24' W 000°15'12 8.6
2017-Feb-28 06:11N 39°32' W 000°03'5210.7
2017-Feb-28 01:22N 40°08' E 000°45'910.9
2017-Feb-28 00:33N 40°14' E 000°54'1111.0
2017-Feb-27 23:33N 40°21' E 001°04'1111.1
2017-Feb-27 22:33N 40°28' E 001°15'1111.2
2017-Feb-27 21:33N 40°36' E 001°26'1110.9
2017-Feb-27 20:33N 40°44' E 001°36'1110.9
2017-Feb-27 19:33N 40°52' E 001°45'1110.8
2017-Feb-27 18:34N 41°01' E 001°54'1111.0
2017-Feb-27 17:34N 41°09' E 002°03'1110.6
2017-Feb-27 16:33N 41°19' E 002°10'2 2.3
2017-Feb-27 15:28N 41°21' E 002°10'0 0.0
2017-Feb-27 14:22N 41°21' E 002°10'0 0.0
2017-Feb-27 13:28N 41°21' E 002°10'0 0.0
2017-Feb-27 10:28N 41°21' E 002°10'0 0.0
2017-Feb-27 09:16N 41°21' E 002°10'0 0.0
2017-Feb-27 07:04N 41°21' E 002°10'0 0.0
2017-Feb-27 06:19N 41°21' E 002°10'3 2.9
2017-Feb-27 05:19N 41°18' E 002°11'5 0.4
2017-Feb-26 18:12N 41°14' E 002°12'1 1.8
2017-Feb-26 17:31N 41°13' E 002°11'1 1.1
2017-Feb-26 16:19N 41°13' E 002°09'2 1.9
2017-Feb-26 15:29N 41°15' E 002°08'1 0.8
2017-Feb-26 14:31N 41°14' E 002°09'11 5.6
2017-Feb-26 12:33N 41°09' E 001°56'1212.0
2017-Feb-26 11:33N 41°07' E 001°40'10 0.6
2017-Feb-25 18:06N 41°09' E 001°53'712.7
2017-Feb-25 17:33N 41°11' E 002°02'1212.2
2017-Feb-25 16:32N 41°16' E 002°16'233 7.5
2017-Feb-24 09:19N 43°05' E 006°54'912.2
2017-Feb-24 08:33N 43°10' E 007°04'1312.6
2017-Feb-24 07:33N 43°18' E 007°18'1212.1
2017-Feb-24 06:33N 43°25' E 007°31'1212.3
2017-Feb-24 05:33N 43°33' E 007°45'1312.6
2017-Feb-24 04:33N 43°41' E 007°59'2512.4
2017-Feb-24 02:33N 43°57' E 008°25'1211.9
2017-Feb-24 01:33N 44°05' E 008°37'1212.1
2017-Feb-24 00:33N 44°14' E 008°49'1111.0
2017-Feb-23 23:33N 44°23' E 008°57'2 2.1
2017-Feb-23 22:31N 44°24' E 008°54'0 0.0
2017-Feb-23 21:31N 44°24' E 008°54'0 0.0
2017-Feb-23 20:28N 44°24' E 008°54'0 0.0
2017-Feb-23 19:31N 44°24' E 008°54'0 0.0
2017-Feb-23 18:31N 44°24' E 008°54'0 0.0
2017-Feb-23 17:31N 44°24' E 008°54'0 0.0
2017-Feb-23 16:31N 44°24' E 008°54'0 0.0
2017-Feb-23 15:28N 44°24' E 008°54'0 0.0
2017-Feb-23 14:31N 44°24' E 008°54'0 0.0
2017-Feb-23 13:31N 44°24' E 008°54'0 0.0
2017-Feb-23 12:31N 44°24' E 008°54'0 0.0
2017-Feb-23 11:31N 44°24' E 008°54'0 0.0
2017-Feb-23 10:31N 44°24' E 008°54'0 0.0
2017-Feb-23 09:31N 44°24' E 008°54'0 0.0
2017-Feb-23 08:31N 44°24' E 008°54'0 0.0
2017-Feb-23 07:31N 44°24' E 008°54'0 0.0
2017-Feb-23 06:28N 44°24' E 008°54'0 0.0
2017-Feb-23 05:33N 44°24' E 008°54'2 1.9
2017-Feb-23 04:33N 44°23' E 008°56'5 5.2
2017-Feb-23 03:33N 44°19' E 008°60'8 8.1
2017-Feb-23 02:33N 44°13' E 009°07'1312.7
2017-Feb-23 01:33N 44°03' E 009°18'1312.5
2017-Feb-23 00:33N 43°53' E 009°29'1312.7
2017-Feb-22 23:33N 43°43' E 009°40'1212.4
2017-Feb-22 22:33N 43°33' E 009°51'1111.4
2017-Feb-22 21:33N 43°30' E 010°06'9 9.4
2017-Feb-22 20:33N 43°34' E 010°18'1 0.7
2017-Feb-22 19:30N 43°34' E 010°18'0 0.0
2017-Feb-22 18:30N 43°34' E 010°18'0 0.0
2017-Feb-22 17:33N 43°34' E 010°18'0 0.0
2017-Feb-22 16:33N 43°34' E 010°18'0 0.0
2017-Feb-22 15:33N 43°34' E 010°18'0 0.0
2017-Feb-22 14:33N 43°34' E 010°18'0 0.0
2017-Feb-22 13:33N 43°34' E 010°18'0 0.0
2017-Feb-22 12:33N 43°34' E 010°18'0 0.0
2017-Feb-22 11:33N 43°34' E 010°18'0 0.0
2017-Feb-22 10:33N 43°34' E 010°18'0 0.0
2017-Feb-22 09:33N 43°34' E 010°18'0 0.0
2017-Feb-22 08:30N 43°34' E 010°18'0 0.0
2017-Feb-22 07:33N 43°34' E 010°18'0 0.0
2017-Feb-22 06:33N 43°34' E 010°18'3 3.3
2017-Feb-22 05:33N 43°32' E 010°16'5 5.2
2017-Feb-22 04:33N 43°27' E 010°13'1313.4
2017-Feb-22 03:33N 43°14' E 010°09'1414.0
2017-Feb-22 02:33N 43°00' E 010°05'33614.6
2017-Feb-21 03:33N 38°50' E 015°02'1414.0
2017-Feb-21 02:33N 38°40' E 015°14'1414.5
2017-Feb-21 01:33N 38°30' E 015°27'1515.2
2017-Feb-21 00:33N 38°19' E 015°41'1211.9
2017-Feb-20 23:33N 38°08' E 015°36'1313.4
2017-Feb-20 22:34N 37°55' E 015°40'1714.6
2017-Feb-20 21:22N 37°48' E 015°60'  
Track history (hours):
 
Tides and Currents Weather Stations Pressure Air Temp Water Temp Dewpoint Dewpoint Depression Visibility Wind Speed Wind Dir Waves Ship Positions

Zim Qingdao

Last reported at 2017-Mar-01 18:08 UTC. Time now 2017-Mar-01 20:15 UTC.
Position N 39°24' W 000°16'.

Length 260.61 m; beam 32.25 m; draft 12.6 m.

Type: Ship (hazmat cat A). MMSI: 636012904.

Date/timePositionNaut miles runAvg speedWind from/ knotsBaromVisibWave heightAir tempDewpointWater temp
2017-Mar-01 18:08N 39°24' W 000°16'0 0.0
2017-Mar-01 17:32N 39°24' W 000°16'0 0.0
2017-Mar-01 09:20N 39°24' W 000°16'0 0.0
2017-Mar-01 07:14N 39°24' W 000°16'0 0.1
2017-Mar-01 06:26N 39°24' W 000°16'0 0.0
2017-Mar-01 04:08N 39°24' W 000°16'0 0.1
2017-Mar-01 03:23N 39°24' W 000°16'0 0.1
2017-Mar-01 02:32N 39°24' W 000°16'0 0.0
2017-Mar-01 01:11N 39°24' W 000°16'0 0.0
2017-Mar-01 00:26N 39°24' W 000°16'0 0.0
2017-Feb-28 10:26N 39°24' W 000°16'0 0.0
2017-Feb-28 09:14N 39°24' W 000°16'0 0.0
2017-Feb-28 08:26N 39°24' W 000°16'1 0.9
2017-Feb-28 07:33N 39°24' W 000°15'12 8.6
2017-Feb-28 06:11N 39°32' W 000°03'5210.7
2017-Feb-28 01:22N 40°08' E 000°45'910.9
2017-Feb-28 00:33N 40°14' E 000°54'1111.0
2017-Feb-27 23:33N 40°21' E 001°04'1111.1
2017-Feb-27 22:33N 40°28' E 001°15'1111.2
2017-Feb-27 21:33N 40°36' E 001°26'1110.9
2017-Feb-27 20:33N 40°44' E 001°36'1110.9
2017-Feb-27 19:33N 40°52' E 001°45'1110.8
2017-Feb-27 18:34N 41°01' E 001°54'1111.0
2017-Feb-27 17:34N 41°09' E 002°03'1110.6
2017-Feb-27 16:33N 41°19' E 002°10'2 2.3
2017-Feb-27 15:28N 41°21' E 002°10'0 0.0
2017-Feb-27 14:22N 41°21' E 002°10'0 0.0
2017-Feb-27 13:28N 41°21' E 002°10'0 0.0
2017-Feb-27 10:28N 41°21' E 002°10'0 0.0
2017-Feb-27 09:16N 41°21' E 002°10'0 0.0
2017-Feb-27 07:04N 41°21' E 002°10'0 0.0
2017-Feb-27 06:19N 41°21' E 002°10'3 2.9
2017-Feb-27 05:19N 41°18' E 002°11'5 0.4
2017-Feb-26 18:12N 41°14' E 002°12'1 1.8
2017-Feb-26 17:31N 41°13' E 002°11'1 1.1
2017-Feb-26 16:19N 41°13' E 002°09'2 1.9
2017-Feb-26 15:29N 41°15' E 002°08'1 0.8
2017-Feb-26 14:31N 41°14' E 002°09'11 5.6
2017-Feb-26 12:33N 41°09' E 001°56'1212.0
2017-Feb-26 11:33N 41°07' E 001°40'10 0.6
2017-Feb-25 18:06N 41°09' E 001°53'712.7
2017-Feb-25 17:33N 41°11' E 002°02'1212.2
2017-Feb-25 16:32N 41°16' E 002°16'233 7.5
2017-Feb-24 09:19N 43°05' E 006°54'912.2
2017-Feb-24 08:33N 43°10' E 007°04'1312.6
2017-Feb-24 07:33N 43°18' E 007°18'1212.1
2017-Feb-24 06:33N 43°25' E 007°31'1212.3
2017-Feb-24 05:33N 43°33' E 007°45'1312.6
2017-Feb-24 04:33N 43°41' E 007°59'2512.4
2017-Feb-24 02:33N 43°57' E 008°25'1211.9
2017-Feb-24 01:33N 44°05' E 008°37'1212.1
2017-Feb-24 00:33N 44°14' E 008°49'1111.0
2017-Feb-23 23:33N 44°23' E 008°57'2 2.1
2017-Feb-23 22:31N 44°24' E 008°54'0 0.0
2017-Feb-23 21:31N 44°24' E 008°54'0 0.0
2017-Feb-23 20:28N 44°24' E 008°54'0 0.0
2017-Feb-23 19:31N 44°24' E 008°54'0 0.0
2017-Feb-23 18:31N 44°24' E 008°54'0 0.0
2017-Feb-23 17:31N 44°24' E 008°54'0 0.0
2017-Feb-23 16:31N 44°24' E 008°54'0 0.0
2017-Feb-23 15:28N 44°24' E 008°54'0 0.0
2017-Feb-23 14:31N 44°24' E 008°54'0 0.0
2017-Feb-23 13:31N 44°24' E 008°54'0 0.0
2017-Feb-23 12:31N 44°24' E 008°54'0 0.0
2017-Feb-23 11:31N 44°24' E 008°54'0 0.0
2017-Feb-23 10:31N 44°24' E 008°54'0 0.0
2017-Feb-23 09:31N 44°24' E 008°54'0 0.0
2017-Feb-23 08:31N 44°24' E 008°54'0 0.0
2017-Feb-23 07:31N 44°24' E 008°54'0 0.0
2017-Feb-23 06:28N 44°24' E 008°54'0 0.0
2017-Feb-23 05:33N 44°24' E 008°54'2 1.9
2017-Feb-23 04:33N 44°23' E 008°56'5 5.2
2017-Feb-23 03:33N 44°19' E 008°60'8 8.1
2017-Feb-23 02:33N 44°13' E 009°07'1312.7
2017-Feb-23 01:33N 44°03' E 009°18'1312.5
2017-Feb-23 00:33N 43°53' E 009°29'1312.7
2017-Feb-22 23:33N 43°43' E 009°40'1212.4
2017-Feb-22 22:33N 43°33' E 009°51'1111.4
2017-Feb-22 21:33N 43°30' E 010°06'9 9.4
2017-Feb-22 20:33N 43°34' E 010°18'1 0.7
2017-Feb-22 19:30N 43°34' E 010°18'0 0.0
2017-Feb-22 18:30N 43°34' E 010°18'0 0.0
2017-Feb-22 17:33N 43°34' E 010°18'0 0.0
2017-Feb-22 16:33N 43°34' E 010°18'0 0.0
2017-Feb-22 15:33N 43°34' E 010°18'0 0.0
2017-Feb-22 14:33N 43°34' E 010°18'0 0.0
2017-Feb-22 13:33N 43°34' E 010°18'0 0.0
2017-Feb-22 12:33N 43°34' E 010°18'0 0.0
2017-Feb-22 11:33N 43°34' E 010°18'0 0.0
2017-Feb-22 10:33N 43°34' E 010°18'0 0.0
2017-Feb-22 09:33N 43°34' E 010°18'0 0.0
2017-Feb-22 08:30N 43°34' E 010°18'0 0.0
2017-Feb-22 07:33N 43°34' E 010°18'0 0.0
2017-Feb-22 06:33N 43°34' E 010°18'3 3.3
2017-Feb-22 05:33N 43°32' E 010°16'5 5.2
2017-Feb-22 04:33N 43°27' E 010°13'1313.4
2017-Feb-22 03:33N 43°14' E 010°09'1414.0
2017-Feb-22 02:33N 43°00' E 010°05'33614.6
2017-Feb-21 03:33N 38°50' E 015°02'1414.0
2017-Feb-21 02:33N 38°40' E 015°14'1414.5
2017-Feb-21 01:33N 38°30' E 015°27'1515.2
2017-Feb-21 00:33N 38°19' E 015°41'1211.9
2017-Feb-20 23:33N 38°08' E 015°36'1313.4
2017-Feb-20 22:34N 37°55' E 015°40'1714.6
2017-Feb-20 21:22N 37°48' E 015°60'  

Dump ship's entire track history